sensor_id;sensor_type;location;lat;lon;timestamp;P1;durP1;ratioP1;P2;durP2;ratioP2
17169;SDS011;8700;48.222;16.342;2023-01-15T00:02:57;18.90;;;17.00;;
17169;SDS011;8700;48.222;16.342;2023-01-15T00:06:20;19.03;;;17.03;;
17169;SDS011;8700;48.222;16.342;2023-01-15T00:09:43;21.07;;;18.83;;
17169;SDS011;8700;48.222;16.342;2023-01-15T00:13:04;24.33;;;21.90;;
17169;SDS011;8700;48.222;16.342;2023-01-15T00:16:25;18.60;;;16.90;;
17169;SDS011;8700;48.222;16.342;2023-01-15T00:19:47;17.47;;;15.70;;
17169;SDS011;8700;48.222;16.342;2023-01-15T00:23:09;17.47;;;15.97;;
17169;SDS011;8700;48.222;16.342;2023-01-15T00:26:51;16.63;;;15.07;;
17169;SDS011;8700;48.222;16.342;2023-01-15T00:30:29;16.57;;;14.80;;
17169;SDS011;8700;48.222;16.342;2023-01-15T00:33:50;11.50;;;10.47;;
17169;SDS011;8700;48.222;16.342;2023-01-15T00:37:11;14.53;;;13.07;;
17169;SDS011;8700;48.222;16.342;2023-01-15T00:40:34;14.77;;;13.20;;
17169;SDS011;8700;48.222;16.342;2023-01-15T00:43:55;15.43;;;13.07;;
17169;SDS011;8700;48.222;16.342;2023-01-15T00:47:16;13.10;;;12.00;;
17169;SDS011;8700;48.222;16.342;2023-01-15T00:50:37;13.37;;;11.97;;
17169;SDS011;8700;48.222;16.342;2023-01-15T00:53:58;14.87;;;13.53;;
17169;SDS011;8700;48.222;16.342;2023-01-15T00:57:21;14.53;;;13.30;;
17169;SDS011;8700;48.222;16.342;2023-01-15T01:00:42;14.43;;;13.13;;
17169;SDS011;8700;48.222;16.342;2023-01-15T01:04:06;13.40;;;12.10;;
17169;SDS011;8700;48.222;16.342;2023-01-15T01:07:28;14.83;;;13.33;;
17169;SDS011;8700;48.222;16.342;2023-01-15T01:10:49;15.80;;;14.10;;
17169;SDS011;8700;48.222;16.342;2023-01-15T01:14:11;15.47;;;14.00;;
17169;SDS011;8700;48.222;16.342;2023-01-15T01:17:32;15.53;;;14.07;;
17169;SDS011;8700;48.222;16.342;2023-01-15T01:20:54;16.83;;;14.30;;
17169;SDS011;8700;48.222;16.342;2023-01-15T01:24:16;15.13;;;13.63;;
17169;SDS011;8700;48.222;16.342;2023-01-15T01:27:39;17.73;;;14.97;;
17169;SDS011;8700;48.222;16.342;2023-01-15T01:31:04;18.23;;;16.53;;
17169;SDS011;8700;48.222;16.342;2023-01-15T01:34:26;16.33;;;14.73;;
17169;SDS011;8700;48.222;16.342;2023-01-15T01:37:48;12.50;;;11.33;;
17169;SDS011;8700;48.222;16.342;2023-01-15T01:41:10;13.43;;;12.27;;
17169;SDS011;8700;48.222;16.342;2023-01-15T01:48:22;13.67;;;12.47;;
17169;SDS011;8700;48.222;16.342;2023-01-15T01:51:46;14.07;;;12.77;;
17169;SDS011;8700;48.222;16.342;2023-01-15T01:55:12;15.07;;;13.47;;
17169;SDS011;8700;48.222;16.342;2023-01-15T01:58:35;14.63;;;13.17;;
17169;SDS011;8700;48.222;16.342;2023-01-15T02:01:57;13.00;;;11.90;;
17169;SDS011;8700;48.222;16.342;2023-01-15T02:05:22;15.87;;;14.43;;
17169;SDS011;8700;48.222;16.342;2023-01-15T02:08:48;15.43;;;13.90;;
17169;SDS011;8700;48.222;16.342;2023-01-15T02:12:10;16.00;;;14.40;;
17169;SDS011;8700;48.222;16.342;2023-01-15T02:15:42;15.90;;;14.40;;
17169;SDS011;8700;48.222;16.342;2023-01-15T02:19:08;17.20;;;15.60;;
17169;SDS011;8700;48.222;16.342;2023-01-15T02:22:51;16.50;;;14.60;;
17169;SDS011;8700;48.222;16.342;2023-01-15T02:30:11;15.93;;;14.33;;
17169;SDS011;8700;48.222;16.342;2023-01-15T02:33:40;14.73;;;13.43;;
17169;SDS011;8700;48.222;16.342;2023-01-15T02:37:05;16.17;;;14.77;;
17169;SDS011;8700;48.222;16.342;2023-01-15T02:40:29;17.30;;;15.60;;
17169;SDS011;8700;48.222;16.342;2023-01-15T02:43:53;16.07;;;14.50;;
17169;SDS011;8700;48.222;16.342;2023-01-15T02:47:19;14.60;;;13.23;;
17169;SDS011;8700;48.222;16.342;2023-01-15T02:50:46;13.83;;;12.60;;
17169;SDS011;8700;48.222;16.342;2023-01-15T02:54:11;14.07;;;12.77;;
17169;SDS011;8700;48.222;16.342;2023-01-15T02:57:35;12.33;;;11.23;;
17169;SDS011;8700;48.222;16.342;2023-01-15T03:00:59;12.80;;;11.17;;
17169;SDS011;8700;48.222;16.342;2023-01-15T03:04:27;11.47;;;10.27;;
17169;SDS011;8700;48.222;16.342;2023-01-15T03:07:53;11.53;;;10.40;;
17169;SDS011;8700;48.222;16.342;2023-01-15T03:11:17;11.93;;;10.90;;
17169;SDS011;8700;48.222;16.342;2023-01-15T03:14:40;12.43;;;11.33;;
17169;SDS011;8700;48.222;16.342;2023-01-15T03:18:05;10.83;;;9.83;;
17169;SDS011;8700;48.222;16.342;2023-01-15T03:21:30;10.80;;;9.80;;
17169;SDS011;8700;48.222;16.342;2023-01-15T03:24:58;10.20;;;9.40;;
17169;SDS011;8700;48.222;16.342;2023-01-15T03:28:23;11.80;;;10.60;;
17169;SDS011;8700;48.222;16.342;2023-01-15T03:31:47;11.57;;;10.50;;
17169;SDS011;8700;48.222;16.342;2023-01-15T03:39:06;11.33;;;10.37;;
17169;SDS011;8700;48.222;16.342;2023-01-15T03:42:34;11.73;;;10.60;;
17169;SDS011;8700;48.222;16.342;2023-01-15T03:46:06;12.57;;;11.23;;
17169;SDS011;8700;48.222;16.342;2023-01-15T03:49:37;10.60;;;9.70;;
17169;SDS011;8700;48.222;16.342;2023-01-15T03:53:09;11.93;;;10.93;;
17169;SDS011;8700;48.222;16.342;2023-01-15T03:56:36;11.53;;;10.40;;
17169;SDS011;8700;48.222;16.342;2023-01-15T04:00:07;10.33;;;9.43;;
17169;SDS011;8700;48.222;16.342;2023-01-15T04:03:34;11.60;;;10.43;;
17169;SDS011;8700;48.222;16.342;2023-01-15T04:06:56;12.40;;;10.63;;
17169;SDS011;8700;48.222;16.342;2023-01-15T04:10:20;10.83;;;9.73;;
17169;SDS011;8700;48.222;16.342;2023-01-15T04:13:42;11.40;;;9.93;;
17169;SDS011;8700;48.222;16.342;2023-01-15T04:17:03;11.17;;;10.07;;
17169;SDS011;8700;48.222;16.342;2023-01-15T04:20:24;11.33;;;10.23;;
17169;SDS011;8700;48.222;16.342;2023-01-15T04:23:45;11.40;;;10.20;;
17169;SDS011;8700;48.222;16.342;2023-01-15T04:27:08;11.57;;;10.20;;
17169;SDS011;8700;48.222;16.342;2023-01-15T04:30:29;10.17;;;9.17;;
17169;SDS011;8700;48.222;16.342;2023-01-15T04:33:50;9.73;;;8.73;;
17169;SDS011;8700;48.222;16.342;2023-01-15T04:37:13;10.53;;;9.53;;
17169;SDS011;8700;48.222;16.342;2023-01-15T04:40:35;10.40;;;9.40;;
17169;SDS011;8700;48.222;16.342;2023-01-15T04:44:15;10.77;;;9.73;;
17169;SDS011;8700;48.222;16.342;2023-01-15T04:47:36;9.53;;;8.53;;
17169;SDS011;8700;48.222;16.342;2023-01-15T04:51:00;10.10;;;9.07;;
17169;SDS011;8700;48.222;16.342;2023-01-15T04:54:22;10.80;;;9.70;;
17169;SDS011;8700;48.222;16.342;2023-01-15T04:57:44;10.27;;;9.33;;
17169;SDS011;8700;48.222;16.342;2023-01-15T05:01:10;10.67;;;9.77;;
17169;SDS011;8700;48.222;16.342;2023-01-15T05:04:31;11.30;;;10.30;;
17169;SDS011;8700;48.222;16.342;2023-01-15T05:07:53;9.30;;;8.50;;
17169;SDS011;8700;48.222;16.342;2023-01-15T05:11:15;22.13;;;19.90;;
17169;SDS011;8700;48.222;16.342;2023-01-15T05:14:36;10.97;;;9.77;;
17169;SDS011;8700;48.222;16.342;2023-01-15T05:17:58;9.97;;;9.07;;
17169;SDS011;8700;48.222;16.342;2023-01-15T05:21:20;10.27;;;9.37;;
17169;SDS011;8700;48.222;16.342;2023-01-15T05:24:43;9.40;;;8.50;;
17169;SDS011;8700;48.222;16.342;2023-01-15T05:28:04;9.87;;;9.00;;
17169;SDS011;8700;48.222;16.342;2023-01-15T05:31:26;9.37;;;8.47;;
17169;SDS011;8700;48.222;16.342;2023-01-15T05:34:49;9.07;;;8.27;;
17169;SDS011;8700;48.222;16.342;2023-01-15T05:38:10;9.50;;;8.67;;
17169;SDS011;8700;48.222;16.342;2023-01-15T05:41:31;9.27;;;8.37;;
17169;SDS011;8700;48.222;16.342;2023-01-15T05:45:11;9.50;;;8.60;;
17169;SDS011;8700;48.222;16.342;2023-01-15T05:48:32;9.97;;;8.17;;
17169;SDS011;8700;48.222;16.342;2023-01-15T05:51:55;8.97;;;8.07;;
17169;SDS011;8700;48.222;16.342;2023-01-15T05:55:18;9.30;;;8.67;;
17169;SDS011;8700;48.222;16.342;2023-01-15T05:58:39;10.23;;;9.23;;
17169;SDS011;8700;48.222;16.342;2023-01-15T06:02:01;9.97;;;8.97;;
17169;SDS011;8700;48.222;16.342;2023-01-15T06:05:22;9.23;;;8.33;;
17169;SDS011;8700;48.222;16.342;2023-01-15T06:08:44;8.87;;;8.07;;
17169;SDS011;8700;48.222;16.342;2023-01-15T06:12:06;8.97;;;8.17;;
17169;SDS011;8700;48.222;16.342;2023-01-15T06:15:27;9.53;;;8.73;;
17169;SDS011;8700;48.222;16.342;2023-01-15T06:18:48;9.43;;;8.53;;
17169;SDS011;8700;48.222;16.342;2023-01-15T06:22:09;9.57;;;8.77;;
17169;SDS011;8700;48.222;16.342;2023-01-15T06:25:32;10.47;;;8.30;;
17169;SDS011;8700;48.222;16.342;2023-01-15T06:28:55;8.97;;;8.17;;
17169;SDS011;8700;48.222;16.342;2023-01-15T06:32:16;9.17;;;8.27;;
17169;SDS011;8700;48.222;16.342;2023-01-15T06:35:38;9.70;;;8.57;;
17169;SDS011;8700;48.222;16.342;2023-01-15T06:38:59;9.57;;;8.77;;
17169;SDS011;8700;48.222;16.342;2023-01-15T06:42:21;9.10;;;8.40;;
17169;SDS011;8700;48.222;16.342;2023-01-15T06:46:00;10.87;;;9.30;;
17169;SDS011;8700;48.222;16.342;2023-01-15T06:49:39;8.60;;;7.80;;
17169;SDS011;8700;48.222;16.342;2023-01-15T06:53:00;8.97;;;8.07;;
17169;SDS011;8700;48.222;16.342;2023-01-15T06:56:21;10.20;;;9.30;;
17169;SDS011;8700;48.222;16.342;2023-01-15T06:59:46;9.53;;;8.23;;
17169;SDS011;8700;48.222;16.342;2023-01-15T07:03:08;8.43;;;7.63;;
17169;SDS011;8700;48.222;16.342;2023-01-15T07:06:30;9.70;;;8.80;;
17169;SDS011;8700;48.222;16.342;2023-01-15T07:09:52;9.27;;;8.30;;
17169;SDS011;8700;48.222;16.342;2023-01-15T07:13:13;9.70;;;8.80;;
17169;SDS011;8700;48.222;16.342;2023-01-15T07:16:35;9.37;;;8.47;;
17169;SDS011;8700;48.222;16.342;2023-01-15T07:19:57;8.63;;;7.83;;
17169;SDS011;8700;48.222;16.342;2023-01-15T07:23:18;8.90;;;8.00;;
17169;SDS011;8700;48.222;16.342;2023-01-15T07:26:40;9.80;;;8.87;;
17169;SDS011;8700;48.222;16.342;2023-01-15T07:30:01;9.30;;;8.50;;
17169;SDS011;8700;48.222;16.342;2023-01-15T07:33:24;10.73;;;8.67;;
17169;SDS011;8700;48.222;16.342;2023-01-15T07:36:45;10.00;;;9.10;;
17169;SDS011;8700;48.222;16.342;2023-01-15T07:40:07;8.47;;;7.63;;
17169;SDS011;8700;48.222;16.342;2023-01-15T07:43:29;10.40;;;9.23;;
17169;SDS011;8700;48.222;16.342;2023-01-15T07:47:13;10.67;;;9.57;;
17169;SDS011;8700;48.222;16.342;2023-01-15T07:50:55;9.27;;;8.37;;
17169;SDS011;8700;48.222;16.342;2023-01-15T07:54:16;11.03;;;9.93;;
17169;SDS011;8700;48.222;16.342;2023-01-15T07:57:38;9.63;;;8.73;;
17169;SDS011;8700;48.222;16.342;2023-01-15T08:00:59;9.60;;;8.80;;
17169;SDS011;8700;48.222;16.342;2023-01-15T08:04:21;9.70;;;8.63;;
17169;SDS011;8700;48.222;16.342;2023-01-15T08:07:43;9.50;;;7.77;;
17169;SDS011;8700;48.222;16.342;2023-01-15T08:11:05;8.80;;;7.90;;
17169;SDS011;8700;48.222;16.342;2023-01-15T08:14:43;8.87;;;8.07;;
17169;SDS011;8700;48.222;16.342;2023-01-15T08:18:22;9.93;;;8.80;;
17169;SDS011;8700;48.222;16.342;2023-01-15T08:21:43;8.97;;;8.17;;
17169;SDS011;8700;48.222;16.342;2023-01-15T08:25:08;9.20;;;8.40;;
17169;SDS011;8700;48.222;16.342;2023-01-15T08:28:30;8.33;;;7.73;;
17169;SDS011;8700;48.222;16.342;2023-01-15T08:31:51;9.20;;;8.30;;
17169;SDS011;8700;48.222;16.342;2023-01-15T08:35:12;11.27;;;8.17;;
17169;SDS011;8700;48.222;16.342;2023-01-15T08:38:34;9.77;;;8.87;;
17169;SDS011;8700;48.222;16.342;2023-01-15T08:41:56;8.00;;;7.30;;
17169;SDS011;8700;48.222;16.342;2023-01-15T08:45:18;8.00;;;7.20;;
17169;SDS011;8700;48.222;16.342;2023-01-15T08:48:39;8.80;;;8.00;;
17169;SDS011;8700;48.222;16.342;2023-01-15T08:52:00;9.03;;;8.23;;
17169;SDS011;8700;48.222;16.342;2023-01-15T08:55:22;9.57;;;8.67;;
17169;SDS011;8700;48.222;16.342;2023-01-15T08:58:44;10.40;;;9.40;;
17169;SDS011;8700;48.222;16.342;2023-01-15T09:02:08;8.63;;;7.83;;
17169;SDS011;8700;48.222;16.342;2023-01-15T09:05:30;8.93;;;8.13;;
17169;SDS011;8700;48.222;16.342;2023-01-15T09:08:52;8.93;;;8.13;;
17169;SDS011;8700;48.222;16.342;2023-01-15T09:12:13;9.77;;;8.87;;
17169;SDS011;8700;48.222;16.342;2023-01-15T09:15:36;9.30;;;8.50;;
17169;SDS011;8700;48.222;16.342;2023-01-15T09:18:57;9.17;;;8.33;;
17169;SDS011;8700;48.222;16.342;2023-01-15T09:22:18;7.90;;;7.20;;
17169;SDS011;8700;48.222;16.342;2023-01-15T09:25:39;8.33;;;7.63;;
17169;SDS011;8700;48.222;16.342;2023-01-15T09:29:10;9.00;;;8.20;;
17169;SDS011;8700;48.222;16.342;2023-01-15T09:32:32;8.83;;;8.13;;
17169;SDS011;8700;48.222;16.342;2023-01-15T09:35:53;10.20;;;9.07;;
17169;SDS011;8700;48.222;16.342;2023-01-15T09:39:14;10.23;;;9.33;;
17169;SDS011;8700;48.222;16.342;2023-01-15T09:42:37;11.83;;;9.20;;
17169;SDS011;8700;48.222;16.342;2023-01-15T09:46:07;9.20;;;8.37;;
17169;SDS011;8700;48.222;16.342;2023-01-15T09:49:36;15.03;;;13.60;;
17169;SDS011;8700;48.222;16.342;2023-01-15T09:57:06;8.80;;;8.00;;
17169;SDS011;8700;48.222;16.342;2023-01-15T10:00:33;9.27;;;8.53;;
17169;SDS011;8700;48.222;16.342;2023-01-15T10:03:58;10.37;;;9.47;;
17169;SDS011;8700;48.222;16.342;2023-01-15T10:07:26;10.00;;;9.10;;
17169;SDS011;8700;48.222;16.342;2023-01-15T10:10:53;11.03;;;9.60;;
17169;SDS011;8700;48.222;16.342;2023-01-15T10:14:22;8.83;;;8.03;;
17169;SDS011;8700;48.222;16.342;2023-01-15T10:17:57;9.57;;;8.67;;
17169;SDS011;8700;48.222;16.342;2023-01-15T10:21:25;10.00;;;9.00;;
17169;SDS011;8700;48.222;16.342;2023-01-15T10:24:54;10.70;;;9.50;;
17169;SDS011;8700;48.222;16.342;2023-01-15T10:28:18;10.70;;;9.63;;
17169;SDS011;8700;48.222;16.342;2023-01-15T10:31:49;9.23;;;8.43;;
17169;SDS011;8700;48.222;16.342;2023-01-15T10:35:22;9.87;;;9.03;;
17169;SDS011;8700;48.222;16.342;2023-01-15T10:38:52;9.87;;;9.00;;
17169;SDS011;8700;48.222;16.342;2023-01-15T10:42:26;9.67;;;8.77;;
17169;SDS011;8700;48.222;16.342;2023-01-15T10:45:58;8.80;;;8.10;;
17169;SDS011;8700;48.222;16.342;2023-01-15T10:49:22;9.40;;;8.60;;
17169;SDS011;8700;48.222;16.342;2023-01-15T10:52:48;10.70;;;8.57;;
17169;SDS011;8700;48.222;16.342;2023-01-15T10:56:14;8.30;;;7.50;;
17169;SDS011;8700;48.222;16.342;2023-01-15T10:59:43;8.67;;;7.90;;
17169;SDS011;8700;48.222;16.342;2023-01-15T11:03:09;9.60;;;8.33;;
17169;SDS011;8700;48.222;16.342;2023-01-15T11:06:36;9.77;;;8.90;;
17169;SDS011;8700;48.222;16.342;2023-01-15T11:09:57;9.67;;;8.77;;
17169;SDS011;8700;48.222;16.342;2023-01-15T11:13:24;8.97;;;8.27;;
17169;SDS011;8700;48.222;16.342;2023-01-15T11:17:07;8.53;;;7.83;;
17169;SDS011;8700;48.222;16.342;2023-01-15T11:21:00;9.50;;;8.70;;
17169;SDS011;8700;48.222;16.342;2023-01-15T11:24:22;9.73;;;8.80;;
17169;SDS011;8700;48.222;16.342;2023-01-15T11:27:47;10.00;;;9.00;;
17169;SDS011;8700;48.222;16.342;2023-01-15T11:31:10;9.63;;;8.73;;
17169;SDS011;8700;48.222;16.342;2023-01-15T11:34:34;12.10;;;11.17;;
17169;SDS011;8700;48.222;16.342;2023-01-15T11:38:00;9.70;;;8.83;;
17169;SDS011;8700;48.222;16.342;2023-01-15T11:41:27;10.87;;;9.73;;
17169;SDS011;8700;48.222;16.342;2023-01-15T11:45:11;11.33;;;10.27;;
17169;SDS011;8700;48.222;16.342;2023-01-15T11:48:53;10.63;;;9.53;;
17169;SDS011;8700;48.222;16.342;2023-01-15T11:52:32;10.20;;;9.30;;
17169;SDS011;8700;48.222;16.342;2023-01-15T11:55:58;11.33;;;10.30;;
17169;SDS011;8700;48.222;16.342;2023-01-15T11:59:22;12.37;;;11.27;;
17169;SDS011;8700;48.222;16.342;2023-01-15T12:02:44;11.10;;;10.10;;
17169;SDS011;8700;48.222;16.342;2023-01-15T12:06:08;14.83;;;13.63;;
17169;SDS011;8700;48.222;16.342;2023-01-15T12:09:41;12.07;;;10.97;;
17169;SDS011;8700;48.222;16.342;2023-01-15T12:13:16;11.77;;;10.67;;
17169;SDS011;8700;48.222;16.342;2023-01-15T12:16:50;11.77;;;10.60;;
17169;SDS011;8700;48.222;16.342;2023-01-15T12:20:20;11.50;;;10.50;;
17169;SDS011;8700;48.222;16.342;2023-01-15T12:23:51;11.23;;;10.30;;
17169;SDS011;8700;48.222;16.342;2023-01-15T12:27:32;10.50;;;9.47;;
17169;SDS011;8700;48.222;16.342;2023-01-15T12:31:06;10.97;;;10.00;;
17169;SDS011;8700;48.222;16.342;2023-01-15T12:34:35;12.60;;;10.30;;
17169;SDS011;8700;48.222;16.342;2023-01-15T12:38:02;12.20;;;10.07;;
17169;SDS011;8700;48.222;16.342;2023-01-15T12:41:31;10.77;;;9.87;;
17169;SDS011;8700;48.222;16.342;2023-01-15T12:45:15;11.43;;;10.33;;
17169;SDS011;8700;48.222;16.342;2023-01-15T12:48:41;11.37;;;10.37;;
17169;SDS011;8700;48.222;16.342;2023-01-15T12:52:08;12.47;;;11.37;;
17169;SDS011;8700;48.222;16.342;2023-01-15T12:55:33;15.33;;;13.93;;
17169;SDS011;8700;48.222;16.342;2023-01-15T12:59:03;13.93;;;12.63;;
17169;SDS011;8700;48.222;16.342;2023-01-15T13:02:34;14.23;;;12.80;;
17169;SDS011;8700;48.222;16.342;2023-01-15T13:06:01;11.40;;;10.27;;
17169;SDS011;8700;48.222;16.342;2023-01-15T13:09:29;12.83;;;11.30;;
17169;SDS011;8700;48.222;16.342;2023-01-15T13:12:58;12.80;;;11.47;;
17169;SDS011;8700;48.222;16.342;2023-01-15T13:16:34;12.40;;;11.30;;
17169;SDS011;8700;48.222;16.342;2023-01-15T13:20:13;13.23;;;11.93;;
17169;SDS011;8700;48.222;16.342;2023-01-15T13:23:57;12.83;;;11.53;;
17169;SDS011;8700;48.222;16.342;2023-01-15T13:27:38;13.93;;;12.63;;
17169;SDS011;8700;48.222;16.342;2023-01-15T13:31:14;13.27;;;12.17;;
17169;SDS011;8700;48.222;16.342;2023-01-15T13:34:50;12.90;;;11.70;;
17169;SDS011;8700;48.222;16.342;2023-01-15T13:38:17;13.43;;;12.23;;
17169;SDS011;8700;48.222;16.342;2023-01-15T13:41:41;13.17;;;12.03;;
17169;SDS011;8700;48.222;16.342;2023-01-15T13:45:21;13.67;;;12.33;;
17169;SDS011;8700;48.222;16.342;2023-01-15T13:48:48;13.93;;;12.50;;
17169;SDS011;8700;48.222;16.342;2023-01-15T13:52:16;12.60;;;11.53;;
17169;SDS011;8700;48.222;16.342;2023-01-15T13:55:48;13.43;;;12.13;;
17169;SDS011;8700;48.222;16.342;2023-01-15T14:02:58;13.50;;;12.30;;
17169;SDS011;8700;48.222;16.342;2023-01-15T14:06:20;15.40;;;13.47;;
17169;SDS011;8700;48.222;16.342;2023-01-15T14:09:41;15.43;;;14.03;;
17169;SDS011;8700;48.222;16.342;2023-01-15T14:13:11;15.13;;;13.73;;
17169;SDS011;8700;48.222;16.342;2023-01-15T14:16:49;15.63;;;14.23;;
17169;SDS011;8700;48.222;16.342;2023-01-15T14:20:31;15.13;;;13.83;;
17169;SDS011;8700;48.222;16.342;2023-01-15T14:24:01;14.40;;;12.73;;
17169;SDS011;8700;48.222;16.342;2023-01-15T14:27:56;15.60;;;14.20;;
17169;SDS011;8700;48.222;16.342;2023-01-15T14:31:50;15.67;;;14.23;;
17169;SDS011;8700;48.222;16.342;2023-01-15T14:35:21;15.07;;;13.57;;
17169;SDS011;8700;48.222;16.342;2023-01-15T14:38:44;16.30;;;14.80;;
17169;SDS011;8700;48.222;16.342;2023-01-15T14:42:09;15.50;;;14.07;;
17169;SDS011;8700;48.222;16.342;2023-01-15T14:45:52;15.57;;;13.97;;
17169;SDS011;8700;48.222;16.342;2023-01-15T14:49:26;19.97;;;17.83;;
17169;SDS011;8700;48.222;16.342;2023-01-15T14:52:49;18.07;;;16.07;;
17169;SDS011;8700;48.222;16.342;2023-01-15T14:56:13;16.43;;;14.73;;
17169;SDS011;8700;48.222;16.342;2023-01-15T14:59:40;16.33;;;14.70;;
17169;SDS011;8700;48.222;16.342;2023-01-15T15:03:12;17.10;;;14.23;;
17169;SDS011;8700;48.222;16.342;2023-01-15T15:06:40;15.40;;;13.90;;
17169;SDS011;8700;48.222;16.342;2023-01-15T15:10:09;15.63;;;14.07;;
17169;SDS011;8700;48.222;16.342;2023-01-15T15:13:38;16.50;;;14.90;;
17169;SDS011;8700;48.222;16.342;2023-01-15T15:17:10;16.53;;;14.90;;
17169;SDS011;8700;48.222;16.342;2023-01-15T15:20:42;18.27;;;16.47;;
17169;SDS011;8700;48.222;16.342;2023-01-15T15:24:10;20.43;;;18.37;;
17169;SDS011;8700;48.222;16.342;2023-01-15T15:27:36;16.97;;;15.37;;
17169;SDS011;8700;48.222;16.342;2023-01-15T15:30:58;19.80;;;16.93;;
17169;SDS011;8700;48.222;16.342;2023-01-15T15:34:22;19.67;;;17.70;;
17169;SDS011;8700;48.222;16.342;2023-01-15T15:37:46;21.30;;;19.20;;
17169;SDS011;8700;48.222;16.342;2023-01-15T15:41:10;21.27;;;19.13;;
17169;SDS011;8700;48.222;16.342;2023-01-15T15:44:33;21.53;;;19.40;;
17169;SDS011;8700;48.222;16.342;2023-01-15T15:48:18;20.20;;;18.13;;
17169;SDS011;8700;48.222;16.342;2023-01-15T15:52:00;22.57;;;20.27;;
17169;SDS011;8700;48.222;16.342;2023-01-15T15:55:21;24.87;;;19.90;;
17169;SDS011;8700;48.222;16.342;2023-01-15T15:58:45;21.60;;;19.40;;
17169;SDS011;8700;48.222;16.342;2023-01-15T16:02:13;21.03;;;18.80;;
17169;SDS011;8700;48.222;16.342;2023-01-15T16:05:37;22.73;;;20.30;;
17169;SDS011;8700;48.222;16.342;2023-01-15T16:08:59;19.97;;;17.90;;
17169;SDS011;8700;48.222;16.342;2023-01-15T16:12:23;21.20;;;19.10;;
17169;SDS011;8700;48.222;16.342;2023-01-15T16:15:50;10.77;;;9.77;;
17169;SDS011;8700;48.222;16.342;2023-01-15T16:19:14;6.80;;;6.20;;
17169;SDS011;8700;48.222;16.342;2023-01-15T16:22:42;6.93;;;6.33;;
17169;SDS011;8700;48.222;16.342;2023-01-15T16:26:06;7.63;;;6.47;;
17169;SDS011;8700;48.222;16.342;2023-01-15T16:29:33;6.93;;;5.60;;
17169;SDS011;8700;48.222;16.342;2023-01-15T16:32:57;5.53;;;5.13;;
17169;SDS011;8700;48.222;16.342;2023-01-15T16:36:20;5.00;;;4.67;;
17169;SDS011;8700;48.222;16.342;2023-01-15T16:39:43;6.87;;;4.53;;
17169;SDS011;8700;48.222;16.342;2023-01-15T16:43:06;5.80;;;5.30;;
17169;SDS011;8700;48.222;16.342;2023-01-15T16:46:30;5.30;;;4.90;;
17169;SDS011;8700;48.222;16.342;2023-01-15T16:49:54;5.00;;;4.60;;
17169;SDS011;8700;48.222;16.342;2023-01-15T16:53:51;5.00;;;4.67;;
17169;SDS011;8700;48.222;16.342;2023-01-15T17:00:51;4.97;;;4.67;;
17169;SDS011;8700;48.222;16.342;2023-01-15T17:04:18;4.53;;;4.13;;
17169;SDS011;8700;48.222;16.342;2023-01-15T17:07:48;5.57;;;5.17;;
17169;SDS011;8700;48.222;16.342;2023-01-15T17:11:16;5.07;;;4.60;;
17169;SDS011;8700;48.222;16.342;2023-01-15T17:14:39;4.93;;;4.63;;
17169;SDS011;8700;48.222;16.342;2023-01-15T17:18:02;5.63;;;5.23;;
17169;SDS011;8700;48.222;16.342;2023-01-15T17:21:39;3.43;;;3.23;;
17169;SDS011;8700;48.222;16.342;2023-01-15T17:25:20;3.63;;;3.43;;
17169;SDS011;8700;48.222;16.342;2023-01-15T17:28:42;4.67;;;4.37;;
17169;SDS011;8700;48.222;16.342;2023-01-15T17:32:04;4.67;;;4.37;;
17169;SDS011;8700;48.222;16.342;2023-01-15T17:35:26;3.77;;;3.57;;
17169;SDS011;8700;48.222;16.342;2023-01-15T17:38:48;6.33;;;5.83;;
17169;SDS011;8700;48.222;16.342;2023-01-15T17:42:14;5.00;;;4.70;;
17169;SDS011;8700;48.222;16.342;2023-01-15T17:45:37;4.60;;;4.30;;
17169;SDS011;8700;48.222;16.342;2023-01-15T17:48:59;4.70;;;4.40;;
17169;SDS011;8700;48.222;16.342;2023-01-15T17:52:20;4.83;;;4.43;;
17169;SDS011;8700;48.222;16.342;2023-01-15T17:55:42;5.03;;;4.63;;
17169;SDS011;8700;48.222;16.342;2023-01-15T17:59:24;4.23;;;3.93;;
17169;SDS011;8700;48.222;16.342;2023-01-15T18:03:02;5.53;;;5.07;;
17169;SDS011;8700;48.222;16.342;2023-01-15T18:06:42;5.30;;;4.87;;
17169;SDS011;8700;48.222;16.342;2023-01-15T18:10:08;5.13;;;4.63;;
17169;SDS011;8700;48.222;16.342;2023-01-15T18:13:36;5.13;;;4.73;;
17169;SDS011;8700;48.222;16.342;2023-01-15T18:17:01;3.57;;;3.37;;
17169;SDS011;8700;48.222;16.342;2023-01-15T18:20:22;4.00;;;3.40;;
17169;SDS011;8700;48.222;16.342;2023-01-15T18:23:44;3.10;;;2.93;;
17169;SDS011;8700;48.222;16.342;2023-01-15T18:27:05;3.20;;;2.90;;
17169;SDS011;8700;48.222;16.342;2023-01-15T18:30:26;2.70;;;2.50;;
17169;SDS011;8700;48.222;16.342;2023-01-15T18:33:49;3.40;;;3.20;;
17169;SDS011;8700;48.222;16.342;2023-01-15T18:37:10;3.27;;;3.07;;
17169;SDS011;8700;48.222;16.342;2023-01-15T18:40:32;2.50;;;2.40;;
17169;SDS011;8700;48.222;16.342;2023-01-15T18:43:53;3.47;;;3.27;;
17169;SDS011;8700;48.222;16.342;2023-01-15T18:47:32;4.13;;;3.70;;
17169;SDS011;8700;48.222;16.342;2023-01-15T18:50:55;3.57;;;3.30;;
17169;SDS011;8700;48.222;16.342;2023-01-15T18:54:18;4.90;;;4.53;;
17169;SDS011;8700;48.222;16.342;2023-01-15T18:57:39;5.17;;;4.83;;
17169;SDS011;8700;48.222;16.342;2023-01-15T19:01:04;6.10;;;5.80;;
17169;SDS011;8700;48.222;16.342;2023-01-15T19:04:27;4.03;;;3.83;;
17169;SDS011;8700;48.222;16.342;2023-01-15T19:07:49;3.73;;;3.50;;
17169;SDS011;8700;48.222;16.342;2023-01-15T19:11:11;4.10;;;3.80;;
17169;SDS011;8700;48.222;16.342;2023-01-15T19:14:32;5.23;;;4.83;;
17169;SDS011;8700;48.222;16.342;2023-01-15T19:18:12;5.70;;;5.10;;
17169;SDS011;8700;48.222;16.342;2023-01-15T19:21:50;4.63;;;4.23;;
17169;SDS011;8700;48.222;16.342;2023-01-15T19:25:27;12.03;;;10.87;;
17169;SDS011;8700;48.222;16.342;2023-01-15T19:28:50;4.33;;;4.03;;
17169;SDS011;8700;48.222;16.342;2023-01-15T19:32:12;6.07;;;5.57;;
17169;SDS011;8700;48.222;16.342;2023-01-15T19:35:33;4.10;;;3.80;;
17169;SDS011;8700;48.222;16.342;2023-01-15T19:38:56;3.70;;;3.47;;
17169;SDS011;8700;48.222;16.342;2023-01-15T19:42:18;4.53;;;4.23;;
17169;SDS011;8700;48.222;16.342;2023-01-15T19:45:59;4.20;;;4.00;;
17169;SDS011;8700;48.222;16.342;2023-01-15T19:49:38;4.77;;;4.47;;
17169;SDS011;8700;48.222;16.342;2023-01-15T19:53:17;4.37;;;4.07;;
17169;SDS011;8700;48.222;16.342;2023-01-15T19:56:38;3.87;;;3.57;;
17169;SDS011;8700;48.222;16.342;2023-01-15T20:00:02;5.27;;;4.77;;
17169;SDS011;8700;48.222;16.342;2023-01-15T20:03:23;3.30;;;3.10;;
17169;SDS011;8700;48.222;16.342;2023-01-15T20:06:45;3.60;;;3.30;;
17169;SDS011;8700;48.222;16.342;2023-01-15T20:10:08;2.30;;;2.20;;
17169;SDS011;8700;48.222;16.342;2023-01-15T20:13:33;2.87;;;2.67;;
17169;SDS011;8700;48.222;16.342;2023-01-15T20:17:13;2.90;;;2.70;;
17169;SDS011;8700;48.222;16.342;2023-01-15T20:20:36;2.43;;;2.33;;
17169;SDS011;8700;48.222;16.342;2023-01-15T20:23:58;2.30;;;2.20;;
17169;SDS011;8700;48.222;16.342;2023-01-15T20:27:21;2.83;;;2.73;;
17169;SDS011;8700;48.222;16.342;2023-01-15T20:30:44;2.30;;;2.20;;
17169;SDS011;8700;48.222;16.342;2023-01-15T20:34:10;2.93;;;2.73;;
17169;SDS011;8700;48.222;16.342;2023-01-15T20:37:33;2.57;;;2.47;;
17169;SDS011;8700;48.222;16.342;2023-01-15T20:40:56;2.37;;;2.27;;
17169;SDS011;8700;48.222;16.342;2023-01-15T20:44:39;2.27;;;2.17;;
17169;SDS011;8700;48.222;16.342;2023-01-15T20:48:13;2.33;;;2.00;;
17169;SDS011;8700;48.222;16.342;2023-01-15T20:51:56;2.90;;;2.70;;